createdAt,value
2019-05-13T00:00:23.512Z,65.47
2019-05-13T00:02:55.316Z,66.28
2019-05-13T00:05:28.146Z,65.43
2019-05-13T00:07:59.440Z,64.21
2019-05-13T00:10:30.765Z,64.39
2019-05-13T00:13:04.488Z,61.85
2019-05-13T00:15:35.245Z,62.33
2019-05-13T00:18:06.712Z,62.02
2019-05-13T00:20:38.088Z,63.21
2019-05-13T00:23:09.613Z,65.22
2019-05-13T00:25:41.040Z,65.76
2019-05-13T00:28:14.435Z,63.27
2019-05-13T00:30:45.606Z,63.30
2019-05-13T00:33:17.110Z,64.61
2019-05-13T00:35:48.497Z,64.04
2019-05-13T00:38:19.922Z,64.82
2019-05-13T00:40:51.528Z,66.66
2019-05-13T00:43:24.499Z,64.92
2019-05-13T00:45:57.021Z,66.04
2019-05-13T00:48:29.825Z,63.78
2019-05-13T00:51:03.497Z,66.02
2019-05-13T00:53:35.482Z,63.95
2019-05-13T00:56:07.189Z,64.31
2019-05-13T00:58:38.498Z,65.42
2019-05-13T01:01:09.908Z,66.21
2019-05-13T01:03:41.495Z,65.26
2019-05-13T01:06:13.412Z,64.99
2019-05-13T01:08:45.104Z,64.80
2019-05-13T01:11:16.429Z,63.61
2019-05-13T01:13:48.214Z,63.21
2019-05-13T01:16:19.696Z,64.95
2019-05-13T01:18:50.976Z,62.81
2019-05-13T01:21:23.928Z,66.13
2019-05-13T01:23:55.397Z,64.07
2019-05-13T01:26:26.706Z,63.76
2019-05-13T01:28:58.144Z,63.55
2019-05-13T01:31:29.548Z,63.59
2019-05-13T01:34:01.274Z,64.27
2019-05-13T01:36:34.045Z,66.16
2019-05-13T01:39:07.872Z,69.71
2019-05-13T01:41:39.171Z,68.30
2019-05-13T01:44:10.950Z,69.22
2019-05-13T01:46:43.723Z,68.22
2019-05-13T01:49:18.518Z,66.01
2019-05-13T01:51:48.925Z,65.19
2019-05-13T01:54:20.401Z,66.15
2019-05-13T01:56:53.521Z,65.52
2019-05-13T01:59:25.488Z,65.71
2019-05-13T02:01:56.917Z,65.10
2019-05-13T02:04:28.519Z,65.41
2019-05-13T02:07:00.062Z,64.85
2019-05-13T02:09:33.687Z,68.09
2019-05-13T02:12:05.508Z,66.03
2019-05-13T02:14:37.299Z,64.91
2019-05-13T02:17:08.750Z,67.00
2019-05-13T02:19:40.573Z,65.19
2019-05-13T02:22:14.411Z,65.49
2019-05-13T02:24:45.254Z,65.43
2019-05-13T02:27:17.202Z,65.68
2019-05-13T02:29:48.753Z,65.51
2019-05-13T02:32:23.286Z,65.20
2019-05-13T02:34:53.487Z,65.87
2019-05-13T02:37:29.243Z,64.72
2019-05-13T02:40:03.153Z,64.90
2019-05-13T02:42:32.926Z,64.99
2019-05-13T02:45:15.362Z,64.74
2019-05-13T02:47:47.778Z,65.15
2019-05-13T02:50:22.358Z,64.83
2019-05-13T02:52:53.105Z,64.75
2019-05-13T02:55:25.599Z,65.51
2019-05-13T02:57:57.368Z,65.25
2019-05-13T03:00:28.746Z,66.69
2019-05-13T03:03:03.325Z,64.50
2019-05-13T03:05:33.397Z,65.06
2019-05-13T03:08:04.847Z,67.12
2019-05-13T03:10:36.292Z,66.55
2019-05-13T03:13:08.063Z,65.89
2019-05-13T03:15:47.574Z,66.12
2019-05-13T03:18:22.590Z,66.72
2019-05-13T03:20:55.401Z,67.41
2019-05-13T03:23:26.857Z,65.18
2019-05-13T03:25:58.201Z,67.26
2019-05-13T03:28:33.148Z,65.73
2019-05-13T03:31:06.416Z,67.48
2019-05-13T03:33:37.723Z,66.22
2019-05-13T03:36:16.385Z,67.55
2019-05-13T03:38:59.937Z,66.79
2019-05-13T03:41:22.535Z,68.50
2019-05-13T03:43:55.584Z,68.32
2019-05-13T03:46:33.143Z,66.27
2019-05-13T03:49:04.746Z,69.05
2019-05-13T03:51:36.562Z,67.61
2019-05-13T03:54:12.641Z,67.21
2019-05-13T03:56:43.302Z,66.23
2019-05-13T03:59:14.948Z,67.76
2019-05-13T04:01:46.632Z,67.62
2019-05-13T04:04:18.089Z,67.98
2019-05-13T04:06:52.768Z,67.11
2019-05-13T04:09:31.236Z,67.69
2019-05-13T04:11:56.482Z,68.69
2019-05-13T04:14:28.220Z,67.37
2019-05-13T04:17:02.861Z,67.82
2019-05-13T04:19:34.556Z,68.22
2019-05-13T04:22:05.992Z,68.62
2019-05-13T04:24:38.338Z,67.32
2019-05-13T04:27:12.906Z,65.52
2019-05-13T04:29:43.515Z,67.22
2019-05-13T04:32:15.922Z,67.28
2019-05-13T04:34:48.033Z,66.60
2019-05-13T04:37:22.271Z,67.46
2019-05-13T04:39:56.448Z,65.40
2019-05-13T04:42:25.863Z,66.32
2019-05-13T04:44:57.339Z,65.47
2019-05-13T04:47:28.858Z,65.91
2019-05-13T04:50:02.858Z,66.26
2019-05-13T04:52:34.340Z,66.98
2019-05-13T04:55:06.320Z,67.22
2019-05-13T04:57:37.974Z,66.74
2019-05-13T05:00:12.824Z,67.23
2019-05-13T05:03:32.669Z,65.39
2019-05-13T05:06:33.460Z,65.42
2019-05-13T05:09:22.680Z,66.19
2019-05-13T05:12:51.732Z,65.58
2019-05-13T05:16:07.355Z,65.62
2019-05-13T05:19:32.295Z,66.19
2019-05-13T05:23:32.003Z,64.95
2019-05-13T05:27:01.478Z,66.24
2019-05-13T05:30:07.317Z,66.27
2019-05-13T05:33:03.061Z,66.09
2019-05-13T05:36:33.046Z,67.85
2019-05-13T05:39:23.613Z,67.63
2019-05-13T05:41:58.136Z,66.53
2019-05-13T05:44:32.593Z,65.42
2019-05-13T05:47:05.637Z,65.59
2019-05-13T05:49:41.077Z,65.22
2019-05-13T05:52:13.670Z,65.18
2019-05-13T05:54:48.436Z,64.33
2019-05-13T05:57:36.822Z,62.48
2019-05-13T06:00:29.121Z,62.18
2019-05-13T06:03:04.378Z,60.16
2019-05-13T06:05:37.390Z,60.25
2019-05-13T06:08:11.297Z,60.50
2019-05-13T06:10:49.908Z,60.97
2019-05-13T06:13:16.411Z,62.55
2019-05-13T06:15:47.942Z,59.19
2019-05-13T06:18:22.183Z,56.25
2019-05-13T06:20:53.221Z,57.36
2019-05-13T06:23:24.676Z,53.67
2019-05-13T06:25:56.396Z,54.94
2019-05-13T06:28:27.850Z,54.29
2019-05-13T06:31:02.436Z,53.93
2019-05-13T06:33:34.120Z,49.86
2019-05-13T06:36:05.794Z,49.39
2019-05-13T06:38:37.264Z,49.31
2019-05-13T06:41:12.269Z,48.65
2019-05-13T06:43:42.175Z,47.00
2019-05-13T06:46:14.014Z,49.66
2019-05-13T06:48:45.460Z,46.68
2019-05-13T06:51:17.113Z,46.44
2019-05-13T06:53:48.349Z,45.31
2019-05-13T06:56:21.752Z,46.54
2019-05-13T06:58:53.192Z,43.27
2019-05-13T07:01:25.107Z,48.72
2019-05-13T07:03:56.570Z,44.37
2019-05-13T07:06:27.983Z,41.73
2019-05-13T07:09:01.416Z,43.72
2019-05-13T07:11:34.330Z,45.18
2019-05-13T07:14:05.968Z,46.10
2019-05-13T07:16:37.383Z,49.32
2019-05-13T07:19:08.807Z,41.76
2019-05-13T07:21:41.754Z,41.25
2019-05-13T07:24:13.376Z,40.75
2019-05-13T07:26:46.495Z,39.65
2019-05-13T07:29:18.529Z,44.58
2019-05-13T07:31:52.281Z,44.55
2019-05-13T07:34:24.792Z,45.00
2019-05-13T07:36:56.748Z,45.81
2019-05-13T07:39:28.393Z,46.98
2019-05-13T07:42:05.063Z,46.00
2019-05-13T07:44:33.335Z,42.42
2019-05-13T07:47:05.352Z,48.39
2019-05-13T07:49:36.896Z,42.17
2019-05-13T07:52:08.370Z,42.54
2019-05-13T07:54:41.972Z,38.77
2019-05-13T07:57:13.301Z,39.95
2019-05-13T07:59:44.787Z,43.02
2019-05-13T08:02:16.304Z,43.58
2019-05-13T08:04:49.477Z,39.13
2019-05-13T08:07:22.689Z,40.54
2019-05-13T08:09:56.852Z,37.38
2019-05-13T08:12:27.247Z,41.88
2019-05-13T08:14:59.036Z,41.74
2019-05-13T08:17:47.310Z,38.03
2019-05-13T08:20:32.737Z,38.86
2019-05-13T08:23:08.262Z,40.29
2019-05-13T08:25:42.124Z,43.58
2019-05-13T08:28:13.636Z,37.40
2019-05-13T08:30:45.115Z,40.01
2019-05-13T08:33:16.452Z,35.30
2019-05-13T08:35:54.034Z,36.24
2019-05-13T08:38:22.960Z,35.21
2019-05-13T08:40:53.835Z,37.26
2019-05-13T08:43:25.199Z,37.79
2019-05-13T08:45:56.559Z,36.96
2019-05-13T08:48:27.994Z,36.76
2019-05-13T08:50:59.432Z,42.41
2019-05-13T08:53:31.726Z,35.57
2019-05-13T08:56:04.680Z,38.04
2019-05-13T08:58:36.540Z,36.97
2019-05-13T09:01:08.119Z,36.10
2019-05-13T09:03:41.754Z,35.18
2019-05-13T09:06:13.547Z,38.43
2019-05-13T09:08:45.013Z,39.83
2019-05-13T09:11:16.446Z,33.55
2019-05-13T09:13:48.095Z,36.23
2019-05-13T09:16:21.472Z,38.03
2019-05-13T09:18:52.989Z,40.36
2019-05-13T09:21:24.428Z,39.68
2019-05-13T09:23:55.886Z,38.16
2019-05-13T09:26:27.317Z,37.04
2019-05-13T09:29:01.259Z,35.65
2019-05-13T09:31:32.512Z,32.33
2019-05-13T09:34:04.270Z,32.43
2019-05-13T09:36:35.739Z,32.93
2019-05-13T09:39:08.938Z,32.36
2019-05-13T09:41:43.745Z,32.24
2019-05-13T09:44:13.919Z,35.08
2019-05-13T09:46:45.736Z,31.50
2019-05-13T09:49:20.187Z,37.01
2019-05-13T09:51:52.319Z,36.55
2019-05-13T09:54:24.232Z,29.70
2019-05-13T09:56:55.721Z,30.39
2019-05-13T09:59:27.534Z,30.95
2019-05-13T10:01:58.969Z,30.48
2019-05-13T10:04:31.758Z,33.00
2019-05-13T10:07:03.600Z,32.62
2019-05-13T10:09:35.082Z,30.04
2019-05-13T10:12:07.136Z,29.30
2019-05-13T10:14:38.931Z,30.95
2019-05-13T10:17:13.190Z,32.90
2019-05-13T10:19:44.502Z,34.67
2019-05-13T10:22:16.005Z,32.24
2019-05-13T10:24:47.443Z,30.25
2019-05-13T10:27:22.328Z,32.24
2019-05-13T10:29:54.044Z,29.48
2019-05-13T10:32:25.573Z,31.12
2019-05-13T10:34:58.092Z,29.63
2019-05-13T10:37:29.619Z,30.74
2019-05-13T10:40:02.397Z,30.36
2019-05-13T10:42:34.786Z,29.47
2019-05-13T10:45:06.559Z,29.45
2019-05-13T10:47:42.104Z,28.88
2019-05-13T10:50:13.747Z,29.82
2019-05-13T10:52:45.121Z,29.25
2019-05-13T10:55:18.145Z,30.01
2019-05-13T10:57:51.387Z,29.17
2019-05-13T11:00:55.114Z,30.72
2019-05-13T11:03:26.537Z,32.36
2019-05-13T11:05:58.203Z,31.69
2019-05-13T11:08:32.230Z,29.30
2019-05-13T11:11:03.610Z,28.78
2019-05-13T11:13:52.180Z,30.23
2019-05-13T11:16:12.220Z,28.46
2019-05-13T11:18:43.168Z,28.17
2019-05-13T11:21:14.993Z,27.88
2019-05-13T11:23:46.553Z,29.40
2019-05-13T11:26:18.161Z,27.34
2019-05-13T11:28:52.167Z,27.69
2019-05-13T11:31:22.744Z,27.64
2019-05-13T11:33:54.585Z,27.22
2019-05-13T11:36:26.327Z,27.21
2019-05-13T11:38:58.086Z,27.77
2019-05-13T11:41:29.429Z,29.62
2019-05-13T11:44:12.954Z,28.09
2019-05-13T11:46:33.992Z,27.50
2019-05-13T11:49:05.581Z,27.24
2019-05-13T11:51:37.281Z,29.04
2019-05-13T11:54:09.004Z,27.89
2019-05-13T11:56:48.944Z,28.05
2019-05-13T11:59:14.405Z,28.51
2019-05-13T12:01:46.079Z,29.84
2019-05-13T12:04:17.376Z,29.11
2019-05-13T12:06:53.636Z,32.13
2019-05-13T12:09:22.387Z,31.88
2019-05-13T12:11:53.779Z,29.88
2019-05-13T12:14:43.020Z,29.60
2019-05-13T12:16:58.280Z,29.52
2019-05-13T12:19:31.214Z,28.51
2019-05-13T12:22:03.091Z,28.24
2019-05-13T12:24:35.666Z,28.24
2019-05-13T12:27:07.486Z,27.11
2019-05-13T12:29:42.743Z,25.83
2019-05-13T12:32:13.954Z,25.97
2019-05-13T12:34:46.172Z,26.56
2019-05-13T12:37:17.664Z,27.60
2019-05-13T12:39:52.184Z,27.25
2019-05-13T12:42:22.947Z,29.15
2019-05-13T12:45:09.459Z,30.30
2019-05-13T12:47:27.433Z,29.60
2019-05-13T12:50:02.744Z,28.77
2019-05-13T12:52:32.637Z,29.90
2019-05-13T12:55:04.612Z,26.76
2019-05-13T12:57:36.069Z,26.75
2019-05-13T13:00:08.232Z,25.82
2019-05-13T13:02:40.009Z,29.38
2019-05-13T13:05:19.747Z,26.91
2019-05-13T13:08:12.076Z,28.09
2019-05-13T13:10:22.854Z,26.89
2019-05-13T13:12:54.546Z,29.39
2019-05-13T13:17:58.733Z,31.11
2019-05-13T13:20:33.583Z,27.45
2019-05-13T13:23:04.434Z,29.04
2019-05-13T13:25:36.029Z,27.44
2019-05-13T13:28:12.083Z,26.38
2019-05-13T13:30:43.869Z,27.73
2019-05-13T13:33:15.331Z,28.30
2019-05-13T13:35:55.016Z,32.29
2019-05-13T13:38:25.071Z,28.13
2019-05-13T13:40:54.070Z,26.35
2019-05-13T13:43:25.935Z,26.24
2019-05-13T13:46:11.763Z,25.12
2019-05-13T13:48:33.249Z,27.40
2019-05-13T13:51:04.889Z,27.98
2019-05-13T13:53:36.685Z,29.08
2019-05-13T13:56:08.125Z,28.58
2019-05-13T13:58:43.865Z,27.66
2019-05-13T14:03:46.474Z,26.17
2019-05-13T14:07:09.042Z,29.71
2019-05-13T14:07:13.476Z,26.71
2019-05-13T14:07:16.485Z,28.86
2019-05-13T14:08:52.050Z,26.79
2019-05-13T14:11:25.159Z,24.93
2019-05-13T14:13:56.467Z,27.90
2019-05-13T14:16:32.492Z,29.18
2019-05-13T14:19:01.042Z,31.75
2019-05-13T14:21:32.741Z,29.65
2019-05-13T14:24:04.259Z,29.47
2019-05-13T14:26:35.811Z,28.97
2019-05-13T14:29:07.354Z,29.68
2019-05-13T14:31:41.213Z,27.63
2019-05-13T14:34:11.796Z,27.45
2019-05-13T14:36:43.367Z,27.93
2019-05-13T14:39:14.817Z,25.88
2019-05-13T14:41:46.405Z,26.36
2019-05-13T14:44:18.396Z,27.55
2019-05-13T14:46:52.145Z,28.62
2019-05-13T14:49:23.162Z,28.96
2019-05-13T14:51:56.437Z,29.58
2019-05-13T14:54:27.516Z,27.68
2019-05-13T14:56:58.942Z,26.28
2019-05-13T14:59:31.469Z,26.46
2019-05-13T15:02:03.042Z,27.42
2019-05-13T15:04:34.552Z,29.39
2019-05-13T15:07:06.096Z,29.64
2019-05-13T15:09:37.463Z,30.81
2019-05-13T15:12:09.019Z,32.62
2019-05-13T15:14:42.778Z,32.53
2019-05-13T15:17:13.530Z,34.30
2019-05-13T15:19:45.407Z,34.88
2019-05-13T15:22:16.840Z,33.87
2019-05-13T15:24:48.790Z,33.39
2019-05-13T15:27:22.259Z,29.36
2019-05-13T15:29:53.327Z,28.70
2019-05-13T15:32:24.732Z,29.06
2019-05-13T15:34:56.091Z,30.95
2019-05-13T15:37:27.753Z,30.07
2019-05-13T15:39:59.161Z,32.01
2019-05-13T15:42:31.932Z,31.73
2019-05-13T15:45:03.437Z,32.31
2019-05-13T15:47:34.721Z,29.78
2019-05-13T15:50:06.605Z,28.68
2019-05-13T15:52:37.960Z,28.42
2019-05-13T15:55:11.952Z,27.37
2019-05-13T15:57:44.120Z,27.13
2019-05-13T16:00:15.658Z,28.99
2019-05-13T16:02:47.050Z,29.17
2019-05-13T16:05:18.465Z,30.85
2019-05-13T16:07:51.690Z,31.76
2019-05-13T16:10:23.081Z,34.10
2019-05-13T16:12:54.575Z,33.13
2019-05-13T16:15:26.048Z,31.83
2019-05-13T16:17:57.329Z,31.35
2019-05-13T16:20:29.029Z,31.62
2019-05-13T16:23:02.365Z,33.89
2019-05-13T16:25:35.012Z,35.53
2019-05-13T16:28:06.547Z,37.86
2019-05-13T16:30:38.111Z,34.52
2019-05-13T16:33:12.045Z,33.14
2019-05-13T16:35:42.669Z,32.44
2019-05-13T16:38:14.111Z,29.48
2019-05-13T16:40:45.661Z,29.72
2019-05-13T16:43:17.142Z,30.14
2019-05-13T16:45:48.617Z,28.20
2019-05-13T16:48:21.529Z,30.24
2019-05-13T16:50:53.100Z,31.24
2019-05-13T16:53:26.004Z,31.52
2019-05-13T16:55:57.583Z,30.19
2019-05-13T16:58:32.437Z,30.75
2019-05-13T17:01:04.202Z,33.74
2019-05-13T17:03:35.722Z,32.29
2019-05-13T17:06:07.164Z,31.56
2019-05-13T17:08:38.618Z,34.15
2019-05-13T17:11:11.878Z,33.04
2019-05-13T17:13:43.855Z,33.52
2019-05-13T17:16:15.759Z,32.87
2019-05-13T17:18:47.335Z,33.23
2019-05-13T17:21:21.190Z,34.14
2019-05-13T17:23:52.597Z,33.59
2019-05-13T17:26:24.685Z,33.21
2019-05-13T17:28:56.132Z,34.67
2019-05-13T17:31:28.541Z,34.61
2019-05-13T17:34:01.481Z,33.70
2019-05-13T17:36:33.251Z,33.96
2019-05-13T17:39:06.751Z,34.10
2019-05-13T17:41:38.292Z,34.63
2019-05-13T17:44:11.717Z,35.03
2019-05-13T17:46:42.956Z,36.14
2019-05-13T17:49:14.761Z,37.01
2019-05-13T17:51:46.290Z,38.05
2019-05-13T17:54:17.773Z,37.09
2019-05-13T17:56:49.774Z,36.66
2019-05-13T17:59:21.835Z,37.23
2019-05-13T18:01:53.420Z,38.10
2019-05-13T18:04:25.034Z,38.25
2019-05-13T18:06:58.735Z,36.51
2019-05-13T18:09:31.871Z,38.98
2019-05-13T18:12:04.156Z,38.09
2019-05-13T18:14:36.077Z,38.29
2019-05-13T18:17:07.608Z,38.01
2019-05-13T18:19:39.040Z,40.34
2019-05-13T18:22:11.506Z,38.02
2019-05-13T18:24:43.107Z,39.46
2019-05-13T18:27:14.533Z,38.68
2019-05-13T18:29:46.384Z,39.08
2019-05-13T18:32:17.848Z,39.50
2019-05-13T18:34:49.833Z,39.39
2019-05-13T18:37:22.142Z,40.03
2019-05-13T18:39:53.798Z,39.40
2019-05-13T18:42:25.588Z,40.18
2019-05-13T18:44:57.064Z,40.03
2019-05-13T18:47:28.629Z,40.53
2019-05-13T18:50:02.350Z,41.06
2019-05-13T18:52:33.941Z,42.16
2019-05-13T18:55:05.783Z,41.58
2019-05-13T18:57:37.212Z,40.88
2019-05-13T19:00:11.163Z,41.18
2019-05-13T19:02:42.586Z,41.35
2019-05-13T19:05:15.476Z,41.13
2019-05-13T19:07:48.193Z,41.11
2019-05-13T19:10:21.851Z,41.07
2019-05-13T19:12:53.231Z,41.37
2019-05-13T19:15:24.828Z,40.98
2019-05-13T19:17:56.649Z,41.33
2019-05-13T19:20:28.187Z,41.42
2019-05-13T19:23:01.127Z,42.12
2019-05-13T19:25:32.734Z,42.30
2019-05-13T19:28:04.293Z,42.54
2019-05-13T19:30:35.799Z,42.68
2019-05-13T19:33:07.231Z,43.13
2019-05-13T19:35:38.866Z,42.25
2019-05-13T19:38:12.109Z,42.02
2019-05-13T19:40:43.439Z,43.25
2019-05-13T19:43:14.828Z,42.57
2019-05-13T19:45:46.268Z,42.42
2019-05-13T19:48:18.255Z,41.55
2019-05-13T19:50:51.963Z,41.08
2019-05-13T19:53:23.081Z,41.39
2019-05-13T19:55:54.436Z,41.15
2019-05-13T19:58:25.755Z,42.20
2019-05-13T20:00:57.258Z,43.00
2019-05-13T20:03:28.681Z,42.29
2019-05-13T20:06:02.207Z,42.53
2019-05-13T20:08:33.591Z,42.55
2019-05-13T20:11:05.298Z,43.38
2019-05-13T20:13:36.728Z,42.64
2019-05-13T20:16:08.172Z,42.26
2019-05-13T20:18:41.430Z,42.26
2019-05-13T20:21:13.625Z,42.77
2019-05-13T20:23:45.078Z,43.11
2019-05-13T20:26:16.757Z,42.81
2019-05-13T20:28:48.733Z,43.47
2019-05-13T20:31:21.763Z,43.58
2019-05-13T20:33:53.183Z,43.07
2019-05-13T20:36:24.559Z,44.36
2019-05-13T20:38:56.211Z,44.41
2019-05-13T20:41:27.489Z,43.29
2019-05-13T20:44:01.332Z,43.24
2019-05-13T20:46:32.780Z,43.35
2019-05-13T20:49:04.364Z,44.01
2019-05-13T20:51:36.776Z,43.71
2019-05-13T20:54:08.133Z,44.36
2019-05-13T20:56:42.007Z,44.41
2019-05-13T20:59:12.941Z,44.90
2019-05-13T21:01:44.476Z,44.25
2019-05-13T21:04:15.794Z,44.11
2019-05-13T21:06:47.288Z,45.16
2019-05-13T21:09:18.714Z,44.50
2019-05-13T21:11:51.549Z,46.19
2019-05-13T21:14:23.134Z,45.32
2019-05-13T21:16:54.522Z,44.95
2019-05-13T21:19:26.023Z,45.07
2019-05-13T21:21:57.359Z,45.11
2019-05-13T21:24:28.800Z,45.79
2019-05-13T21:27:01.990Z,46.06
2019-05-13T21:29:33.595Z,46.26
2019-05-13T21:32:05.341Z,46.17
2019-05-13T21:34:36.860Z,46.59
2019-05-13T21:37:08.663Z,47.02
2019-05-13T21:39:41.253Z,47.05
2019-05-13T21:42:12.858Z,47.23
2019-05-13T21:44:44.224Z,47.34
2019-05-13T21:47:15.791Z,47.32
2019-05-13T21:49:47.099Z,47.93
2019-05-13T21:52:23.580Z,47.54
2019-05-13T21:54:52.056Z,48.39
2019-05-13T21:57:24.902Z,48.30
2019-05-13T21:59:56.265Z,48.64
2019-05-13T22:02:27.799Z,48.49
2019-05-13T22:05:01.046Z,48.29
2019-05-13T22:07:32.398Z,48.46
2019-05-13T22:10:04.682Z,48.85
2019-05-13T22:12:36.106Z,48.78
2019-05-13T22:15:09.075Z,48.94
2019-05-13T22:17:42.214Z,49.45
2019-05-13T22:20:13.833Z,49.27
2019-05-13T22:22:45.497Z,49.84
2019-05-13T22:25:16.937Z,50.79
2019-05-13T22:27:48.313Z,50.18
2019-05-13T22:30:20.340Z,50.68
2019-05-13T22:32:52.270Z,51.16
2019-05-13T22:35:23.815Z,50.91
2019-05-13T22:37:55.176Z,51.20
2019-05-13T22:40:26.707Z,51.06
2019-05-13T22:42:58.036Z,51.33
2019-05-13T22:45:31.286Z,51.32
2019-05-13T22:48:03.006Z,51.21
2019-05-13T22:50:34.537Z,51.41
2019-05-13T22:53:06.346Z,51.65
2019-05-13T22:55:37.833Z,51.95
2019-05-13T22:58:09.340Z,52.17
2019-05-13T23:00:42.334Z,52.35
2019-05-13T23:03:15.599Z,52.54
2019-05-13T23:05:47.136Z,53.71
2019-05-13T23:08:18.644Z,52.70
2019-05-13T23:10:51.423Z,54.39
2019-05-13T23:13:23.370Z,53.62
2019-05-13T23:15:54.861Z,53.20
2019-05-13T23:18:26.602Z,53.62
2019-05-13T23:20:58.078Z,53.31
2019-05-13T23:23:29.742Z,53.83
2019-05-13T23:26:01.237Z,53.96
2019-05-13T23:28:32.982Z,54.69
2019-05-13T23:31:04.519Z,53.99
2019-05-13T23:33:36.244Z,54.40
2019-05-13T23:36:07.708Z,54.17
2019-05-13T23:38:41.365Z,55.13
2019-05-13T23:41:12.609Z,55.13
2019-05-13T23:43:44.443Z,55.65
2019-05-13T23:46:15.928Z,56.17
2019-05-13T23:48:47.407Z,56.19
2019-05-13T23:51:18.881Z,55.54
2019-05-13T23:53:50.959Z,55.29
2019-05-13T23:56:22.715Z,55.41
2019-05-13T23:58:54.627Z,56.03
